createdAt,value
2022-10-09T00:01:30.095Z,98489.22
2022-10-09T00:04:00.051Z,98489.34
2022-10-09T00:06:30.847Z,98496.06
2022-10-09T00:09:01.930Z,98494.78
2022-10-09T00:11:32.130Z,98490.63
2022-10-09T00:14:00.432Z,98488.09
2022-10-09T00:16:30.067Z,98487.31
2022-10-09T00:18:58.763Z,98487.13
2022-10-09T00:21:29.278Z,98483.94
2022-10-09T00:24:00.233Z,98483.09
2022-10-09T00:26:30.518Z,98481.22
2022-10-09T00:28:59.319Z,98480.53
2022-10-09T00:31:27.853Z,98476.59
2022-10-09T00:33:56.458Z,98487.59
2022-10-09T00:36:26.893Z,98484.53
2022-10-09T00:38:55.889Z,98483.72
2022-10-09T00:41:27.091Z,98472.59
2022-10-09T00:43:58.681Z,98473.50
2022-10-09T00:46:34.347Z,98476.19
2022-10-09T00:49:10.444Z,98480.69
2022-10-09T00:51:39.532Z,98480.84
2022-10-09T00:54:12.898Z,98473.16
2022-10-09T00:56:41.553Z,98470.50
2022-10-09T00:59:12.129Z,98466.16
2022-10-09T01:01:41.675Z,98462.97
2022-10-09T01:04:12.565Z,98464.09
2022-10-09T01:06:59.484Z,98461.50
2022-10-09T01:09:39.267Z,98462.22
2022-10-09T01:12:17.330Z,98453.66
2022-10-09T01:14:56.555Z,98447.63
2022-10-09T01:17:31.862Z,98446.13
2022-10-09T01:20:32.582Z,98449.44
2022-10-09T01:23:23.773Z,98444.47
2022-10-09T01:26:04.365Z,98444.44
2022-10-09T01:28:36.736Z,98443.69
2022-10-09T01:31:07.409Z,98440.44
2022-10-09T01:33:36.498Z,98439.63
2022-10-09T01:36:07.360Z,98433.06
2022-10-09T01:38:37.601Z,98426.97
2022-10-09T01:41:08.154Z,98430.34
2022-10-09T01:43:37.956Z,98427.78
2022-10-09T01:46:20.681Z,98425.38
2022-10-09T01:48:56.427Z,98412.66
2022-10-09T01:51:31.049Z,98417.78
2022-10-09T01:54:06.449Z,98412.84
2022-10-09T01:56:38.812Z,98413.00
2022-10-09T01:59:16.043Z,98410.53
2022-10-09T02:01:47.006Z,98403.69
2022-10-09T02:04:17.924Z,98396.94
2022-10-09T02:06:47.764Z,98408.19
2022-10-09T02:09:18.992Z,98398.03
2022-10-09T02:11:53.567Z,98398.19
2022-10-09T02:14:25.417Z,98399.03
2022-10-09T02:17:02.619Z,98394.88
2022-10-09T02:19:35.881Z,98386.41
2022-10-09T02:22:09.136Z,98387.31
2022-10-09T02:24:38.917Z,98385.44
2022-10-09T02:27:08.793Z,98382.19
2022-10-09T02:29:39.716Z,98382.25
2022-10-09T02:32:08.587Z,98370.34
2022-10-09T02:34:37.174Z,98374.69
2022-10-09T02:37:06.118Z,98367.28
2022-10-09T02:39:34.781Z,98366.28
2022-10-09T02:42:03.412Z,98368.84
2022-10-09T02:44:31.828Z,98368.06
2022-10-09T02:47:01.566Z,98365.59
2022-10-09T02:49:30.008Z,98363.03
2022-10-09T02:51:58.361Z,98368.25
2022-10-09T02:54:26.745Z,98359.78
2022-10-09T02:56:55.116Z,98358.91
2022-10-09T02:59:23.512Z,98364.00
2022-10-09T03:01:52.155Z,98366.69
2022-10-09T03:04:22.071Z,98359.06
2022-10-09T03:06:50.481Z,98362.66
2022-10-09T03:09:18.855Z,98357.56
2022-10-09T03:11:47.247Z,98360.97
2022-10-09T03:14:15.733Z,98364.56
2022-10-09T03:16:44.179Z,98367.09
2022-10-09T03:19:12.602Z,98361.06
2022-10-09T03:21:42.352Z,98365.28
2022-10-09T03:24:11.038Z,98360.22
2022-10-09T03:26:39.479Z,98362.78
2022-10-09T03:29:07.846Z,98369.69
2022-10-09T03:31:53.101Z,98370.63
2022-10-09T03:34:22.055Z,98370.69
2022-10-09T03:36:51.812Z,98370.78
2022-10-09T03:39:20.188Z,98363.97
2022-10-09T03:41:48.588Z,98369.22
2022-10-09T03:44:16.957Z,98363.50
2022-10-09T03:46:46.578Z,98356.63
2022-10-09T03:49:15.278Z,98361.88
2022-10-09T03:51:43.665Z,98361.13
2022-10-09T03:54:13.397Z,98365.41
2022-10-09T03:56:41.779Z,98371.47
2022-10-09T03:59:11.223Z,98369.91
2022-10-09T04:01:39.647Z,98367.53
2022-10-09T04:04:08.033Z,98369.19
2022-10-09T04:06:36.484Z,98366.00
2022-10-09T04:09:04.998Z,98365.97
2022-10-09T04:11:35.134Z,98367.75
2022-10-09T04:14:03.511Z,98362.81
2022-10-09T04:16:31.931Z,98359.41
2022-10-09T04:19:00.359Z,98357.78
2022-10-09T04:21:28.821Z,98357.66
2022-10-09T04:23:57.209Z,98357.66
2022-10-09T04:26:25.566Z,98352.63
2022-10-09T04:28:55.319Z,98357.03
2022-10-09T04:31:23.734Z,98363.88
2022-10-09T04:33:52.157Z,98359.56
2022-10-09T04:36:20.549Z,98355.34
2022-10-09T04:38:48.922Z,98363.03
2022-10-09T04:41:17.332Z,98351.19
2022-10-09T04:43:45.738Z,98357.09
2022-10-09T04:46:16.269Z,98356.16
2022-10-09T04:48:46.497Z,98353.75
2022-10-09T04:51:15.353Z,98353.75
2022-10-09T04:53:44.000Z,98350.28
2022-10-09T04:56:18.167Z,98343.53
2022-10-09T04:58:48.133Z,98341.00
2022-10-09T05:01:20.247Z,98338.50
2022-10-09T05:03:49.186Z,98334.28
2022-10-09T05:06:19.281Z,98337.63
2022-10-09T05:08:47.842Z,98336.81
2022-10-09T05:11:18.765Z,98339.34
2022-10-09T05:13:49.381Z,98337.63
2022-10-09T05:16:21.607Z,98347.03
2022-10-09T05:18:52.969Z,98347.94
2022-10-09T05:21:22.385Z,98342.75
2022-10-09T05:23:51.027Z,98342.84
2022-10-09T05:26:22.166Z,98340.31
2022-10-09T05:28:51.245Z,98337.69
2022-10-09T05:31:22.858Z,98340.44
2022-10-09T05:33:51.853Z,98343.81
2022-10-09T05:36:21.076Z,98345.53
2022-10-09T05:38:49.942Z,98349.84
2022-10-09T05:41:19.998Z,98348.97
2022-10-09T05:43:50.231Z,98343.84
2022-10-09T05:46:19.463Z,98340.44
2022-10-09T05:48:55.205Z,98337.88
2022-10-09T05:51:25.494Z,98335.50
2022-10-09T05:53:54.453Z,98346.75
2022-10-09T05:56:25.074Z,98334.81
2022-10-09T05:58:55.230Z,98338.00
2022-10-09T06:01:24.455Z,98338.94
2022-10-09T06:03:55.675Z,98345.75
2022-10-09T06:06:25.950Z,98333.78
2022-10-09T06:08:54.804Z,98329.53
2022-10-09T06:11:28.176Z,98332.06
2022-10-09T06:13:57.234Z,98337.88
2022-10-09T06:16:27.411Z,98335.34
2022-10-09T06:18:57.581Z,98339.50
2022-10-09T06:21:28.204Z,98337.84
2022-10-09T06:24:00.014Z,98339.47
2022-10-09T06:26:30.175Z,98338.69
2022-10-09T06:28:58.799Z,98339.56
2022-10-09T06:31:29.178Z,98345.41
2022-10-09T06:34:00.442Z,98339.34
2022-10-09T06:36:30.436Z,98343.53
2022-10-09T06:39:00.203Z,98353.56
2022-10-09T06:41:29.905Z,98354.34
2022-10-09T06:44:00.160Z,98349.06
2022-10-09T06:46:32.131Z,98353.94
2022-10-09T06:49:03.094Z,98352.06
2022-10-09T06:51:32.421Z,98350.22
2022-10-09T06:54:02.770Z,98350.88
2022-10-09T06:56:33.137Z,98352.41
2022-10-09T06:59:02.556Z,98352.91
2022-10-09T07:01:32.838Z,98359.31
2022-10-09T07:04:04.273Z,98353.22
2022-10-09T07:06:34.568Z,98353.47
2022-10-09T07:09:05.870Z,98360.00
2022-10-09T07:11:35.980Z,98359.63
2022-10-09T07:14:05.615Z,98357.78
2022-10-09T07:16:36.326Z,98347.66
2022-10-09T07:19:07.432Z,98356.66
2022-10-09T07:21:36.854Z,98354.16
2022-10-09T07:24:06.459Z,98353.78
2022-10-09T07:26:38.258Z,98352.06
2022-10-09T07:29:08.100Z,98354.31
2022-10-09T07:31:36.673Z,98359.38
2022-10-09T07:34:07.025Z,98350.72
2022-10-09T07:36:35.525Z,98349.00
2022-10-09T07:39:05.316Z,98354.19
2022-10-09T07:41:33.800Z,98345.38
2022-10-09T07:44:02.561Z,98348.63
2022-10-09T07:46:33.680Z,98353.44
2022-10-09T07:49:03.149Z,98349.03
2022-10-09T07:51:33.718Z,98340.81
2022-10-09T07:54:02.765Z,98344.06
2022-10-09T07:56:32.756Z,98344.91
2022-10-09T07:59:03.678Z,98335.69
2022-10-09T08:01:34.079Z,98342.91
2022-10-09T08:04:03.413Z,98340.50
2022-10-09T08:06:34.059Z,98345.72
2022-10-09T08:09:05.043Z,98340.63
2022-10-09T08:11:34.476Z,98333.91
2022-10-09T08:14:03.078Z,98339.28
2022-10-09T08:16:33.117Z,98333.09
2022-10-09T08:19:02.645Z,98329.56
2022-10-09T08:21:32.869Z,98330.75
2022-10-09T08:24:02.782Z,98326.56
2022-10-09T08:26:31.820Z,98331.16
2022-10-09T08:29:01.730Z,98328.19
2022-10-09T08:31:31.739Z,98321.31
2022-10-09T08:34:02.781Z,98308.28
2022-10-09T08:36:32.034Z,98315.47
2022-10-09T08:39:02.182Z,98313.09
2022-10-09T08:41:42.479Z,98319.88
2022-10-09T08:44:16.278Z,98320.75
2022-10-09T08:47:01.479Z,98320.50
2022-10-09T08:49:37.777Z,98319.28
2022-10-09T08:52:18.588Z,98317.59
2022-10-09T08:54:48.743Z,98320.34
2022-10-09T08:57:18.657Z,98314.22
2022-10-09T08:59:47.090Z,98302.34
2022-10-09T09:02:44.501Z,98300.31
2022-10-09T09:05:29.285Z,98297.94
2022-10-09T09:08:08.077Z,98294.50
2022-10-09T09:10:43.554Z,98299.50
2022-10-09T09:13:36.141Z,98294.31
2022-10-09T09:16:13.142Z,98291.97
2022-10-09T09:18:53.082Z,98289.19
2022-10-09T09:21:33.786Z,98285.63
2022-10-09T09:24:06.282Z,98291.88
2022-10-09T09:26:39.863Z,98279.31
2022-10-09T09:29:08.433Z,98286.38
2022-10-09T09:31:39.016Z,98285.25
2022-10-09T09:34:13.901Z,98269.78
2022-10-09T09:36:48.194Z,98273.94
2022-10-09T09:42:15.215Z,98270.69
2022-10-09T09:44:50.640Z,98265.78
2022-10-09T09:47:25.042Z,98265.72
2022-10-09T09:49:54.673Z,98255.47
2022-10-09T09:52:23.335Z,98262.22
2022-10-09T09:54:52.046Z,98259.44
2022-10-09T09:57:30.600Z,98257.81
2022-10-09T10:00:09.101Z,98263.66
2022-10-09T10:02:38.502Z,98250.63
2022-10-09T10:05:17.820Z,98250.78
2022-10-09T10:07:49.912Z,98255.31
2022-10-09T10:10:25.373Z,98257.25
2022-10-09T10:12:58.354Z,98250.38
2022-10-09T10:15:28.554Z,98247.88
2022-10-09T10:18:01.726Z,98254.72
2022-10-09T10:20:32.184Z,98252.38
2022-10-09T10:23:01.629Z,98248.16
2022-10-09T10:25:33.814Z,98244.97
2022-10-09T10:28:09.415Z,98232.59
2022-10-09T10:30:39.121Z,98230.78
2022-10-09T10:33:17.889Z,98230.28
2022-10-09T10:35:50.265Z,98219.09
2022-10-09T10:38:23.829Z,98217.19
2022-10-09T10:40:58.029Z,98224.09
2022-10-09T10:43:37.079Z,98217.34
2022-10-09T10:46:18.379Z,98220.63
2022-10-09T10:48:50.019Z,98210.53
2022-10-09T10:51:39.974Z,98207.69
2022-10-09T10:54:27.772Z,98214.16
2022-10-09T10:57:03.073Z,98210.66
2022-10-09T10:59:40.453Z,98214.97
2022-10-09T11:02:40.942Z,98208.19
2022-10-09T11:05:23.983Z,98217.56
2022-10-09T11:08:04.500Z,98207.00
2022-10-09T11:10:38.011Z,98210.78
2022-10-09T11:13:16.107Z,98193.06
2022-10-09T11:15:57.721Z,98204.50
2022-10-09T11:18:37.622Z,98202.47
2022-10-09T11:21:21.446Z,98194.38
2022-10-09T11:24:05.323Z,98202.38
2022-10-09T11:26:42.983Z,98180.13
2022-10-09T11:29:17.942Z,98179.72
2022-10-09T11:31:51.540Z,98174.69
2022-10-09T11:34:23.717Z,98177.44
2022-10-09T11:36:52.161Z,98168.94
2022-10-09T11:39:23.530Z,98164.91
2022-10-09T11:41:54.357Z,98160.00
2022-10-09T11:44:36.684Z,98160.22
2022-10-09T11:47:16.271Z,98156.63
2022-10-09T11:49:59.407Z,98152.97
2022-10-09T11:52:39.128Z,98143.66
2022-10-09T11:55:19.584Z,98138.81
2022-10-09T11:57:48.907Z,98127.03
2022-10-09T12:00:28.980Z,98119.06
2022-10-09T12:03:02.165Z,98122.91
2022-10-09T12:05:39.970Z,98127.91
2022-10-09T12:08:15.391Z,98109.41
2022-10-09T12:10:53.844Z,98110.50
2022-10-09T12:13:40.958Z,98110.25
2022-10-09T12:16:29.177Z,98096.56
2022-10-09T12:19:00.817Z,98096.63
2022-10-09T12:21:33.643Z,98091.66
2022-10-09T12:24:02.507Z,98097.25
2022-10-09T12:26:31.841Z,98091.75
2022-10-09T12:29:04.796Z,98083.47
2022-10-09T12:31:37.278Z,98079.38
2022-10-09T12:34:18.688Z,98080.56
2022-10-09T12:36:47.427Z,98071.53
2022-10-09T12:39:20.128Z,98062.41
2022-10-09T12:41:53.138Z,98061.88
2022-10-09T12:44:29.533Z,98062.63
2022-10-09T12:47:02.654Z,98058.13
2022-10-09T12:49:32.673Z,98061.25
2022-10-09T12:52:02.029Z,98049.84
2022-10-09T12:54:32.281Z,98054.63
2022-10-09T12:57:01.765Z,98046.13
2022-10-09T12:59:30.748Z,98041.09
2022-10-09T13:02:00.917Z,98033.72
2022-10-09T13:04:33.189Z,98033.72
2022-10-09T13:07:07.744Z,98044.66
2022-10-09T13:09:38.737Z,98038.00
2022-10-09T13:12:10.837Z,98035.38
2022-10-09T13:14:43.961Z,98041.53
2022-10-09T13:17:24.946Z,98025.53
2022-10-09T13:19:56.861Z,98026.41
2022-10-09T13:22:26.839Z,98018.84
2022-10-09T13:24:57.498Z,98024.59
2022-10-09T13:27:28.254Z,98021.75
2022-10-09T13:29:57.450Z,98018.31
2022-10-09T13:32:26.387Z,98008.69
2022-10-09T13:34:57.964Z,98017.34
2022-10-09T13:37:27.895Z,98006.09
2022-10-09T13:39:58.170Z,98004.09
2022-10-09T13:42:29.401Z,98014.69
2022-10-09T13:44:58.091Z,98008.44
2022-10-09T13:47:26.544Z,98006.19
2022-10-09T13:49:57.523Z,98003.72
2022-10-09T13:52:26.223Z,98003.69
2022-10-09T13:54:54.677Z,97995.91
2022-10-09T13:57:23.093Z,97995.03
2022-10-09T13:59:51.583Z,97985.38
2022-10-09T14:02:20.301Z,97991.41
2022-10-09T14:04:48.763Z,97982.53
2022-10-09T14:07:19.080Z,97979.28
2022-10-09T14:09:47.681Z,97980.13
2022-10-09T14:12:16.109Z,97976.44
2022-10-09T14:14:44.546Z,97973.03
2022-10-09T14:17:13.022Z,97976.56
2022-10-09T14:19:41.517Z,97970.38
2022-10-09T14:22:09.971Z,97968.97
2022-10-09T14:24:39.795Z,97974.38
2022-10-09T14:27:08.370Z,97974.03
2022-10-09T14:29:38.103Z,97968.22
2022-10-09T14:32:06.824Z,97969.56
2022-10-09T14:34:35.345Z,97964.09
2022-10-09T14:37:13.579Z,97958.63
2022-10-09T14:39:48.928Z,97956.84
2022-10-09T14:42:17.453Z,97951.97
2022-10-09T14:44:45.888Z,97952.53
2022-10-09T14:47:14.349Z,97950.47
2022-10-09T14:49:42.787Z,97954.00
2022-10-09T14:52:11.408Z,97944.88
2022-10-09T14:54:39.989Z,97948.59
2022-10-09T14:57:09.890Z,97945.03
2022-10-09T14:59:38.362Z,97947.50
2022-10-09T15:02:07.573Z,97941.38
2022-10-09T15:04:36.231Z,97942.00
2022-10-09T15:07:04.682Z,97939.09
2022-10-09T15:09:33.130Z,97941.63
2022-10-09T15:12:01.589Z,97932.00
2022-10-09T15:14:31.392Z,97933.09
2022-10-09T15:17:00.090Z,97934.50
2022-10-09T15:19:28.715Z,97933.81
2022-10-09T15:21:57.393Z,97927.13
2022-10-09T15:24:25.907Z,97923.84
2022-10-09T15:26:54.402Z,97925.53
2022-10-09T15:29:23.275Z,97917.25
2022-10-09T15:31:53.160Z,97915.88
2022-10-09T15:34:21.734Z,97910.31
2022-10-09T15:36:51.035Z,97909.25
2022-10-09T15:39:19.741Z,97906.31
2022-10-09T15:41:48.238Z,97896.78
2022-10-09T15:44:18.717Z,97898.88
2022-10-09T15:46:49.035Z,97890.78
2022-10-09T15:49:19.054Z,97897.25
2022-10-09T15:51:47.533Z,97895.44
2022-10-09T15:54:15.948Z,97898.38
2022-10-09T15:56:44.413Z,97884.16
2022-10-09T15:59:14.230Z,97883.53
2022-10-09T16:01:42.698Z,97883.00
2022-10-09T16:04:11.257Z,97874.41
2022-10-09T16:06:41.169Z,97876.09
2022-10-09T16:09:09.777Z,97876.09
2022-10-09T16:11:38.318Z,97872.53
2022-10-09T16:14:06.763Z,97882.22
2022-10-09T16:16:35.381Z,97881.94
2022-10-09T16:19:05.054Z,97874.16
2022-10-09T16:21:33.472Z,97869.88
2022-10-09T16:24:03.292Z,97867.56
2022-10-09T16:26:31.886Z,97866.97
2022-10-09T16:29:01.378Z,97867.69
2022-10-09T16:31:31.766Z,97867.06
2022-10-09T16:34:00.226Z,97863.47
2022-10-09T16:36:29.707Z,97869.00
2022-10-09T16:38:58.937Z,97876.06
2022-10-09T16:41:28.845Z,97869.81
2022-10-09T16:44:00.108Z,97870.19
2022-10-09T16:46:31.508Z,97873.09
2022-10-09T16:49:02.598Z,97872.69
2022-10-09T16:51:33.253Z,97874.94
2022-10-09T16:54:03.563Z,97877.19
2022-10-09T16:56:37.789Z,97874.88
2022-10-09T16:59:09.451Z,97879.94
2022-10-09T17:01:42.308Z,97882.19
2022-10-09T17:04:11.009Z,97882.56
2022-10-09T17:06:41.201Z,97878.16
2022-10-09T17:09:14.009Z,97879.44
2022-10-09T17:11:45.146Z,97880.97
2022-10-09T17:14:14.262Z,97882.84
2022-10-09T17:16:43.723Z,97878.28
2022-10-09T17:19:12.265Z,97879.66
2022-10-09T17:21:41.426Z,97877.16
2022-10-09T17:24:10.046Z,97880.97
2022-10-09T17:26:39.801Z,97875.78
2022-10-09T17:29:09.916Z,97875.31
2022-10-09T17:31:38.378Z,97870.16
2022-10-09T17:34:07.381Z,97878.00
2022-10-09T17:36:38.071Z,97874.03
2022-10-09T17:39:08.718Z,97875.59
2022-10-09T17:41:37.298Z,97870.34
2022-10-09T17:44:05.998Z,97867.84
2022-10-09T17:46:35.797Z,97861.34
2022-10-09T17:49:04.058Z,97864.03
2022-10-09T17:51:34.813Z,97865.13
2022-10-09T17:54:08.194Z,97871.28
2022-10-09T17:56:39.844Z,97872.41
2022-10-09T17:59:08.666Z,97867.50
2022-10-09T18:01:38.734Z,97871.28
2022-10-09T18:04:07.432Z,97865.31
2022-10-09T18:06:36.181Z,97867.31
2022-10-09T18:09:05.844Z,97864.84
2022-10-09T18:11:34.292Z,97864.19
2022-10-09T18:14:03.790Z,97857.84
2022-10-09T18:16:37.734Z,97858.75
2022-10-09T18:19:11.320Z,97854.59
2022-10-09T18:21:41.661Z,97859.59
2022-10-09T18:24:10.811Z,97854.69
2022-10-09T18:26:39.673Z,97859.50
2022-10-09T18:29:08.176Z,97858.88
2022-10-09T18:31:37.696Z,97861.53
2022-10-09T18:34:07.698Z,97851.69
2022-10-09T18:36:36.310Z,97858.97
2022-10-09T18:39:07.460Z,97863.91
2022-10-09T18:41:37.721Z,97860.06
2022-10-09T18:44:09.620Z,97851.72
2022-10-09T18:46:42.254Z,97854.66
2022-10-09T18:49:16.734Z,97853.38
2022-10-09T18:51:46.587Z,97843.88
2022-10-09T18:54:18.286Z,97834.00
2022-10-09T18:56:47.502Z,97835.72
2022-10-09T18:59:19.287Z,97840.72
2022-10-09T19:01:47.929Z,97830.38
2022-10-09T19:04:18.927Z,97828.88
2022-10-09T19:06:47.472Z,97827.47
2022-10-09T19:09:17.017Z,97831.00
2022-10-09T19:11:45.591Z,97838.25
2022-10-09T19:14:15.708Z,97840.81
2022-10-09T19:16:44.114Z,97829.56
2022-10-09T19:19:12.609Z,97831.38
2022-10-09T19:21:43.943Z,97838.66
2022-10-09T19:24:13.619Z,97827.69
2022-10-09T19:26:42.337Z,97832.84
2022-10-09T19:29:10.917Z,97818.91
2022-10-09T19:31:39.469Z,97831.38
2022-10-09T19:34:08.496Z,97823.41
2022-10-09T19:36:37.577Z,97823.50
2022-10-09T19:39:09.075Z,97827.50
2022-10-09T19:41:38.928Z,97827.72
2022-10-09T19:44:07.169Z,97823.25
2022-10-09T19:46:37.923Z,97830.59
2022-10-09T19:49:08.360Z,97829.31
2022-10-09T19:51:37.502Z,97827.91
2022-10-09T19:54:09.498Z,97827.81
2022-10-09T19:56:39.131Z,97817.34
2022-10-09T19:59:09.158Z,97819.22
2022-10-09T20:01:39.924Z,97819.22
2022-10-09T20:04:11.458Z,97816.09
2022-10-09T20:06:43.611Z,97808.25
2022-10-09T20:09:20.676Z,97812.16
2022-10-09T20:11:49.551Z,97812.22
2022-10-09T20:14:18.081Z,97807.00
2022-10-09T20:16:46.550Z,97810.41
2022-10-09T20:19:14.942Z,97805.19
2022-10-09T20:21:43.329Z,97799.06
2022-10-09T20:24:11.769Z,97800.34
2022-10-09T20:26:43.282Z,97809.00
2022-10-09T20:29:12.037Z,97808.34
2022-10-09T20:31:40.773Z,97806.41
2022-10-09T20:34:09.356Z,97797.91
2022-10-09T20:36:39.054Z,97807.19
2022-10-09T20:39:08.911Z,97814.16
2022-10-09T20:41:38.444Z,97816.09
2022-10-09T20:44:08.721Z,97806.66
2022-10-09T20:46:38.982Z,97807.34
2022-10-09T20:49:09.572Z,97802.34
2022-10-09T20:51:38.420Z,97807.59
2022-10-09T20:54:08.714Z,97809.44
2022-10-09T20:56:37.627Z,97805.91
2022-10-09T20:59:06.057Z,97808.59
2022-10-09T21:01:36.853Z,97812.00
2022-10-09T21:04:05.785Z,97813.00
2022-10-09T21:06:36.014Z,97808.84
2022-10-09T21:09:05.238Z,97812.09
2022-10-09T21:11:34.791Z,97799.19
2022-10-09T21:14:04.228Z,97803.94
2022-10-09T21:16:32.687Z,97810.34
2022-10-09T21:19:04.928Z,97813.00
2022-10-09T21:21:34.045Z,97814.06
2022-10-09T21:24:03.229Z,97818.25
2022-10-09T21:26:35.442Z,97815.81
2022-10-09T21:29:05.165Z,97814.59
2022-10-09T21:31:34.728Z,97816.41
2022-10-09T21:34:04.791Z,97818.56
2022-10-09T21:36:56.256Z,97815.03
2022-10-09T21:39:30.266Z,97819.44
2022-10-09T21:41:59.217Z,97819.47
2022-10-09T21:44:27.750Z,97815.16
2022-10-09T21:46:56.244Z,97817.97
2022-10-09T21:49:28.264Z,97806.59
2022-10-09T21:51:57.203Z,97814.84
2022-10-09T21:54:25.605Z,97811.75
2022-10-09T21:56:54.013Z,97815.84
2022-10-09T21:59:22.412Z,97818.88
2022-10-09T22:01:50.868Z,97814.47
2022-10-09T22:04:19.313Z,97823.34
2022-10-09T22:06:49.102Z,97824.84
2022-10-09T22:09:17.531Z,97821.97
2022-10-09T22:11:45.978Z,97818.63
2022-10-09T22:14:15.012Z,97822.28
2022-10-09T22:16:43.470Z,97817.13
2022-10-09T22:19:11.951Z,97804.25
2022-10-09T22:21:40.396Z,97821.00
2022-10-09T22:24:10.240Z,97821.91
2022-10-09T22:26:38.692Z,97828.72
2022-10-09T22:29:07.437Z,97823.72
2022-10-09T22:31:35.834Z,97816.16
2022-10-09T22:34:04.284Z,97813.63
2022-10-09T22:36:34.561Z,97818.94
2022-10-09T22:39:06.665Z,97814.53
2022-10-09T22:41:36.832Z,97814.63
2022-10-09T22:44:06.764Z,97805.97
2022-10-09T22:46:36.349Z,97809.81
2022-10-09T22:49:05.749Z,97807.31
2022-10-09T22:51:34.356Z,97811.97
2022-10-09T22:54:02.951Z,97797.31
2022-10-09T22:56:32.820Z,97797.56
2022-10-09T22:59:03.138Z,97805.03
2022-10-09T23:01:35.604Z,97794.56
2022-10-09T23:04:06.038Z,97799.44
2022-10-09T23:06:35.119Z,97795.41
2022-10-09T23:09:06.154Z,97793.03
2022-10-09T23:11:35.116Z,97797.44
2022-10-09T23:14:05.867Z,97797.00
2022-10-09T23:16:34.613Z,97789.94
2022-10-09T23:19:06.729Z,97792.41
2022-10-09T23:21:37.346Z,97793.66
2022-10-09T23:24:06.743Z,97802.25
2022-10-09T23:26:36.857Z,97801.50
2022-10-09T23:29:15.119Z,97798.09
2022-10-09T23:31:43.769Z,97794.28
2022-10-09T23:34:12.276Z,97804.28
2022-10-09T23:36:41.113Z,97794.16
2022-10-09T23:39:09.964Z,97791.00
2022-10-09T23:41:39.054Z,97798.66
2022-10-09T23:44:08.898Z,97791.56
2022-10-09T23:46:38.296Z,97798.16
2022-10-09T23:49:06.892Z,97790.31
2022-10-09T23:51:35.293Z,97788.56
2022-10-09T23:54:03.743Z,97790.25
2022-10-09T23:56:33.943Z,97792.66
2022-10-09T23:59:05.989Z,97785.69
